Latest Weather Observations for North Head

IDN60901

Issued at 11:21 am EST Friday 14 May 2021 (issued every 10 minutes, with the page automatically refreshed every 10 minutes)

About weather observations | Map of Sydney area stations | Latest observations for Sydney area | Other Formats
Station Details ID: 066197 Name: NORTH HEAD Lat: -33.82 Lon: 151.30 Height: 90.0 m
Data from the previous 72 hours. | See also: Recent months at North Head
Date/Time
EST
Temp
°C
App
Temp
°C
Dew
Point
°C
Rel
Hum
%
Delta-T
°C
Wind Press
QNH
hPa
Press
MSL
hPa
Rain since
9am
mm
Dir  Spd
km/h
Gust
km/h
Spd
kts
Gust
kts
14/11:00am - - - - - W 26 37 14 20 - - -
14/10:30am - - - - - W 26 39 14 21 - - -
14/10:00am - - - - - W 22 39 12 21 - - -
14/09:30am - - - - - W 20 32 11 17 - - -
14/09:00am - - - - - W 19 30 10 16 - - -
14/08:30am - - - - - W 17 28 9 15 - - -
14/08:00am - - - - - W 13 20 7 11 - - -
14/07:30am - - - - - W 11 17 6 9 - - -
14/07:00am - - - - - WNW 9 13 5 7 - - -
14/06:30am - - - - - WNW 13 20 7 11 - - -
14/06:00am - - - - - WNW 9 13 5 7 - - -
14/05:30am - - - - - WNW 11 15 6 8 - - -
14/05:00am - - - - - WNW 11 17 6 9 - - -
14/04:30am - - - - - WNW 11 15 6 8 - - -
14/04:00am - - - - - WNW 7 15 4 8 - - -
14/03:30am - - - - - WNW 13 24 7 13 - - -
14/03:00am - - - - - NW 6 15 3 8 - - -
14/02:30am - - - - - WNW 7 11 4 6 - - -
14/02:00am - - - - - WNW 11 17 6 9 - - -
14/01:30am - - - - - NW 13 17 7 9 - - -
14/01:00am - - - - - WNW 9 15 5 8 - - -
14/12:30am - - - - - WNW 17 24 9 13 - - -
14/12:00am - - - - - WNW 19 28 10 15 - - -
 
Date/Time
EST
Temp
°C
App
Temp
°C
Dew
Point
°C
Rel
Hum
%
Delta-T
°C
Wind Press
QNH
hPa
Press
MSL
hPa
Rain since
9am
mm
Dir  Spd
km/h
Gust
km/h
Spd
kts
Gust
kts
13/11:30pm - - - - - W 11 20 6 11 - - -
13/11:00pm - - - - - WNW 17 28 9 15 - - -
13/10:30pm - - - - - W 20 32 11 17 - - -
13/10:00pm - - - - - WNW 15 22 8 12 - - -
13/09:30pm - - - - - W 19 26 10 14 - - -
13/09:00pm - - - - - WNW 13 17 7 9 - - -
13/08:30pm - - - - - WNW 11 15 6 8 - - -
13/08:00pm - - - - - W 11 17 6 9 - - -
13/07:30pm - - - - - W 13 17 7 9 - - -
13/07:00pm - - - - - W 4 6 2 3 - - -
13/06:30pm - - - - - NNW 2 7 1 4 - - -
13/06:00pm - - - - - NW 4 9 2 5 - - -
13/05:30pm - - - - - NE 9 11 5 6 - - -
13/05:00pm - - - - - ENE 7 11 4 6 - - -
13/04:30pm - - - - - ENE 9 11 5 6 - - -
13/04:00pm - - - - - ENE 11 13 6 7 - - -
13/03:30pm - - - - - NE 7 11 4 6 - - -
13/03:00pm - - - - - NNE 7 11 4 6 - - -
13/02:30pm - - - - - WNW 6 9 3 5 - - -
13/02:00pm - - - - - W 6 13 3 7 - - -
13/01:30pm - - - - - WSW 9 15 5 8 - - -
13/01:00pm - - - - - W 7 13 4 7 - - -
13/12:30pm - - - - - W 9 15 5 8 - - -
13/12:00pm - - - - - WNW 11 17 6 9 - - -
13/11:30am - - - - - WNW 11 19 6 10 - - -
13/11:00am - - - - - WNW 13 19 7 10 - - -
13/10:30am - - - - - WNW 13 17 7 9 - - -
13/10:00am - - - - - W 9 15 5 8 - - -
13/09:30am - - - - - W 11 17 6 9 - - -
13/09:00am - - - - - W 9 13 5 7 - - -
13/08:30am - - - - - W 11 15 6 8 - - -
13/08:00am - - - - - W 11 15 6 8 - - -
13/07:30am - - - - - W 13 17 7 9 - - -
13/07:00am - - - - - W 13 17 7 9 - - -
13/06:30am - - - - - W 9 13 5 7 - - -
13/06:00am - - - - - W 9 11 5 6 - - -
13/05:30am - - - - - W 11 15 6 8 - - -
13/05:00am - - - - - W 11 15 6 8 - - -
13/04:30am - - - - - WNW 15 19 8 10 - - -
13/04:00am - - - - - WNW 11 15 6 8 - - -
13/03:30am - - - - - W 11 17 6 9 - - -
13/03:00am - - - - - W 9 13 5 7 - - -
13/02:30am - - - - - NNE 2 7 1 4 - - -
13/02:00am - - - - - ESE 15 20 8 11 - - -
13/01:30am - - - - - S 9 17 5 9 - - -
13/01:00am - - - - - W 9 13 5 7 - - -
13/12:30am - - - - - S 9 13 5 7 - - -
13/12:00am - - - - - SW 9 15 5 8 - - -
 
Date/Time
EST
Temp
°C
App
Temp
°C
Dew
Point
°C
Rel
Hum
%
Delta-T
°C
Wind Press
QNH
hPa
Press
MSL
hPa
Rain since
9am
mm
Dir  Spd
km/h
Gust
km/h
Spd
kts
Gust
kts
12/11:30pm - - - - - WSW 6 17 3 9 - - -
12/11:00pm - - - - - SW 9 13 5 7 - - -
12/10:30pm - - - - - WSW 7 11 4 6 - - -
12/10:00pm - - - - - WSW 7 9 4 5 - - -
12/09:30pm - - - - - SSW 11 17 6 9 - - -
12/09:00pm - - - - - SSW 13 17 7 9 - - -
12/08:30pm - - - - - S 17 30 9 16 - - -
12/08:00pm - - - - - SW 13 26 7 14 - - -
12/07:30pm - - - - - SSW 15 22 8 12 - - -
12/07:00pm - - - - - S 17 28 9 15 - - -
12/06:30pm - - - - - S 22 32 12 17 - - -
12/06:00pm - - - - - S 17 28 9 15 - - -
12/05:30pm - - - - - S 15 24 8 13 - - -
12/05:00pm - - - - - S 17 26 9 14 - - -
12/04:30pm - - - - - S 15 24 8 13 - - -
12/04:00pm - - - - - S 15 26 8 14 - - -
12/03:30pm - - - - - S 17 28 9 15 - - -
12/03:00pm - - - - - S 17 28 9 15 - - -
12/02:30pm - - - - - S 19 28 10 15 - - -
12/02:00pm - - - - - S 19 28 10 15 - - -
12/01:30pm - - - - - S 17 24 9 13 - - -
12/01:00pm - - - - - S 17 24 9 13 - - -
12/12:30pm - - - - - S 20 32 11 17 - - -
12/12:00pm - - - - - S 22 33 12 18 - - -
12/11:30am - - - - - S 17 24 9 13 - - -
12/11:00am - - - - - S 19 30 10 16 - - -
12/10:30am - - - - - S 20 35 11 19 - - -
12/10:00am - - - - - S 17 28 9 15 - - -
12/09:30am - - - - - SW 13 19 7 10 - - -
12/09:00am - - - - - SW 11 17 6 9 - - -
12/08:30am - - - - - WSW 11 15 6 8 - - -
12/08:00am - - - - - WSW 11 17 6 9 - - -
12/07:30am - - - - - WSW 9 17 5 9 - - -
12/07:00am - - - - - W 11 15 6 8 - - -
12/06:30am - - - - - W 11 13 6 7 - - -
12/06:00am - - - - - WSW 9 17 5 9 - - -
12/05:30am - - - - - WSW 9 13 5 7 - - -
12/05:00am - - - - - W 11 13 6 7 - - -
12/04:30am - - - - - WSW 9 17 5 9 - - -
12/04:00am - - - - - WSW 9 15 5 8 - - -
12/03:30am - - - - - WSW 11 19 6 10 - - -
12/03:00am - - - - - W 9 15 5 8 - - -
12/02:30am - - - - - WSW 11 15 6 8 - - -
12/02:00am - - - - - SW 11 17 6 9 - - -
12/01:30am - - - - - WSW 11 15 6 8 - - -
12/01:00am - - - - - SW 11 17 6 9 - - -
12/12:30am - - - - - SSW 11 19 6 10 - - -
12/12:00am - - - - - SW 9 17 5 9 - - -
 
Date/Time
EST
Temp
°C
App
Temp
°C
Dew
Point
°C
Rel
Hum
%
Delta-T
°C
Wind Press
QNH
hPa
Press
MSL
hPa
Rain since
9am
mm
Dir  Spd
km/h
Gust
km/h
Spd
kts
Gust
kts
11/11:30pm - - - - - SSW 11 19 6 10 - - -
11/11:00pm - - - - - SSW 11 17 6 9 - - -
11/10:30pm - - - - - SSW 11 22 6 12 - - -
11/10:00pm - - - - - SSW 13 20 7 11 - - -
11/09:30pm - - - - - SW 13 19 7 10 - - -
11/09:00pm - - - - - SW 9 15 5 8 - - -
11/08:30pm - - - - - WSW 7 11 4 6 - - -
11/08:00pm - - - - - WSW 7 13 4 7 - - -
11/07:30pm - - - - - WSW 9 15 5 8 - - -
11/07:00pm - - - - - SW 9 15 5 8 - - -
11/06:30pm - - - - - SSW 7 15 4 8 - - -
11/06:00pm - - - - - SSW 9 15 5 8 - - -
11/05:30pm - - - - - SSW 9 11 5 6 - - -
11/05:00pm - - - - - S 11 19 6 10 - - -
11/04:30pm - - - - - S 11 19 6 10 - - -
11/04:00pm - - - - - S 13 20 7 11 - - -
11/03:30pm - - - - - SW 15 26 8 14 - - -
11/03:00pm - - - - - NNW 9 17 5 9 - - -
11/02:30pm - - - - - N 11 19 6 10 - - -
11/02:00pm - - - - - NNW 13 20 7 11 - - -
11/01:30pm - - - - - NNW 9 17 5 9 - - -
11/01:00pm - - - - - NW 7 11 4 6 - - -
11/12:30pm - - - - - E 7 9 4 5 - - -
11/12:00pm - - - - - ENE 9 13 5 7 - - -
11/11:30am - - - - - NNE 6 9 3 5 - - -

Latest Capital City Observations: Canberra | Sydney | Melbourne | Brisbane | Adelaide | Perth | Hobart | Darwin

Other formats

Comma delimited format used in spreadsheet applications
http://www.bom.gov.au/fwo/IDN60901/IDN60901.95768.axf

JavaScript Object Notation format (JSON) in row-major order
http://www.bom.gov.au/fwo/IDN60901/IDN60901.95768.json

Data quality

Most of these data are generated automatically and are frequently updated. Quality checks on data are not normally performed. It is possible for incorrect values to appear. Refer to information at About Latest Weather Observations and please check the disclaimer before using these data.